sensor_id;sensor_type;location;lat;lon;timestamp;temperature;humidity
11043;DHT22;5574;48.786;10.120;2023-07-31T00:02:12;15.80;99.90
11043;DHT22;5574;48.786;10.120;2023-07-31T00:04:39;15.70;99.90
11043;DHT22;5574;48.786;10.120;2023-07-31T00:07:07;15.70;99.90
11043;DHT22;5574;48.786;10.120;2023-07-31T00:09:33;15.70;99.90
11043;DHT22;5574;48.786;10.120;2023-07-31T00:12:00;15.50;99.90
11043;DHT22;5574;48.786;10.120;2023-07-31T00:14:27;15.60;99.90
11043;DHT22;5574;48.786;10.120;2023-07-31T00:16:54;15.60;99.90
11043;DHT22;5574;48.786;10.120;2023-07-31T00:19:20;15.70;99.90
11043;DHT22;5574;48.786;10.120;2023-07-31T00:21:47;15.70;99.90
11043;DHT22;5574;48.786;10.120;2023-07-31T00:24:15;15.70;99.90
11043;DHT22;5574;48.786;10.120;2023-07-31T00:26:42;15.70;99.90
11043;DHT22;5574;48.786;10.120;2023-07-31T00:29:08;15.70;99.90
11043;DHT22;5574;48.786;10.120;2023-07-31T00:31:35;15.70;99.90
11043;DHT22;5574;48.786;10.120;2023-07-31T00:34:02;15.70;99.90
11043;DHT22;5574;48.786;10.120;2023-07-31T00:36:28;15.70;99.90
11043;DHT22;5574;48.786;10.120;2023-07-31T00:38:55;15.70;99.90
11043;DHT22;5574;48.786;10.120;2023-07-31T00:41:23;15.70;99.90
11043;DHT22;5574;48.786;10.120;2023-07-31T00:43:50;15.70;99.90
11043;DHT22;5574;48.786;10.120;2023-07-31T00:46:17;15.70;99.90
11043;DHT22;5574;48.786;10.120;2023-07-31T00:48:44;15.60;99.90
11043;DHT22;5574;48.786;10.120;2023-07-31T00:51:10;15.60;99.90
11043;DHT22;5574;48.786;10.120;2023-07-31T00:53:38;15.50;99.90
11043;DHT22;5574;48.786;10.120;2023-07-31T00:56:05;15.50;99.90
11043;DHT22;5574;48.786;10.120;2023-07-31T00:58:34;15.40;99.90
11043;DHT22;5574;48.786;10.120;2023-07-31T01:01:00;15.40;99.90
11043;DHT22;5574;48.786;10.120;2023-07-31T01:03:27;15.30;99.90
11043;DHT22;5574;48.786;10.120;2023-07-31T01:06:04;15.30;99.90
11043;DHT22;5574;48.786;10.120;2023-07-31T01:08:37;15.20;99.90
11043;DHT22;5574;48.786;10.120;2023-07-31T01:11:11;15.20;99.90
11043;DHT22;5574;48.786;10.120;2023-07-31T01:13:42;15.30;99.90
11043;DHT22;5574;48.786;10.120;2023-07-31T01:16:09;15.30;99.90
11043;DHT22;5574;48.786;10.120;2023-07-31T01:18:36;15.30;99.90
11043;DHT22;5574;48.786;10.120;2023-07-31T01:21:15;15.20;99.90
11043;DHT22;5574;48.786;10.120;2023-07-31T01:26:46;15.30;99.90
11043;DHT22;5574;48.786;10.120;2023-07-31T01:29:20;15.20;99.90
11043;DHT22;5574;48.786;10.120;2023-07-31T01:31:48;15.20;99.90
11043;DHT22;5574;48.786;10.120;2023-07-31T01:34:17;15.30;99.90
11043;DHT22;5574;48.786;10.120;2023-07-31T01:36:44;15.20;99.90
11043;DHT22;5574;48.786;10.120;2023-07-31T01:39:11;15.20;99.90
11043;DHT22;5574;48.786;10.120;2023-07-31T01:41:38;15.20;99.90
11043;DHT22;5574;48.786;10.120;2023-07-31T01:44:06;15.20;99.90
11043;DHT22;5574;48.786;10.120;2023-07-31T01:46:33;15.10;99.90
11043;DHT22;5574;48.786;10.120;2023-07-31T01:48:59;15.10;99.90
11043;DHT22;5574;48.786;10.120;2023-07-31T01:51:26;15.10;99.90
11043;DHT22;5574;48.786;10.120;2023-07-31T01:53:53;15.10;99.90
11043;DHT22;5574;48.786;10.120;2023-07-31T01:56:19;15.00;99.90
11043;DHT22;5574;48.786;10.120;2023-07-31T01:58:46;15.10;99.90
11043;DHT22;5574;48.786;10.120;2023-07-31T02:01:14;15.00;99.90
11043;DHT22;5574;48.786;10.120;2023-07-31T02:03:41;15.00;99.90
11043;DHT22;5574;48.786;10.120;2023-07-31T02:06:08;15.00;99.90
11043;DHT22;5574;48.786;10.120;2023-07-31T02:08:34;15.00;99.90
11043;DHT22;5574;48.786;10.120;2023-07-31T02:11:01;15.00;99.90
11043;DHT22;5574;48.786;10.120;2023-07-31T02:13:28;15.00;99.90
11043;DHT22;5574;48.786;10.120;2023-07-31T02:15:54;15.00;99.90
11043;DHT22;5574;48.786;10.120;2023-07-31T02:18:22;14.80;99.90
11043;DHT22;5574;48.786;10.120;2023-07-31T02:20:50;14.90;99.90
11043;DHT22;5574;48.786;10.120;2023-07-31T02:23:17;14.80;99.90
11043;DHT22;5574;48.786;10.120;2023-07-31T02:25:44;14.80;99.90
11043;DHT22;5574;48.786;10.120;2023-07-31T02:28:11;14.70;99.90
11043;DHT22;5574;48.786;10.120;2023-07-31T02:30:37;14.60;99.90
11043;DHT22;5574;48.786;10.120;2023-07-31T02:33:04;14.60;99.90
11043;DHT22;5574;48.786;10.120;2023-07-31T02:35:32;14.50;99.90
11043;DHT22;5574;48.786;10.120;2023-07-31T02:37:59;14.50;99.90
11043;DHT22;5574;48.786;10.120;2023-07-31T02:40:25;14.50;99.90
11043;DHT22;5574;48.786;10.120;2023-07-31T02:42:52;14.50;99.90
11043;DHT22;5574;48.786;10.120;2023-07-31T02:45:19;14.60;99.90
11043;DHT22;5574;48.786;10.120;2023-07-31T02:47:45;14.50;99.90
11043;DHT22;5574;48.786;10.120;2023-07-31T02:50:12;14.60;99.90
11043;DHT22;5574;48.786;10.120;2023-07-31T02:52:40;14.50;99.90
11043;DHT22;5574;48.786;10.120;2023-07-31T02:55:07;14.50;99.90
11043;DHT22;5574;48.786;10.120;2023-07-31T02:57:34;14.50;99.90
11043;DHT22;5574;48.786;10.120;2023-07-31T03:00:01;14.50;99.90
11043;DHT22;5574;48.786;10.120;2023-07-31T03:02:31;14.50;99.90
11043;DHT22;5574;48.786;10.120;2023-07-31T03:04:58;14.60;99.90
11043;DHT22;5574;48.786;10.120;2023-07-31T03:07:24;14.60;99.90
11043;DHT22;5574;48.786;10.120;2023-07-31T03:09:52;14.60;99.90
11043;DHT22;5574;48.786;10.120;2023-07-31T03:12:19;14.50;99.90
11043;DHT22;5574;48.786;10.120;2023-07-31T03:14:46;14.50;99.90
11043;DHT22;5574;48.786;10.120;2023-07-31T03:17:12;14.40;99.90
11043;DHT22;5574;48.786;10.120;2023-07-31T03:19:39;14.40;99.90
11043;DHT22;5574;48.786;10.120;2023-07-31T03:22:06;14.40;99.90
11043;DHT22;5574;48.786;10.120;2023-07-31T03:24:32;14.40;99.90
11043;DHT22;5574;48.786;10.120;2023-07-31T03:27:00;14.40;99.90
11043;DHT22;5574;48.786;10.120;2023-07-31T03:29:27;14.50;99.90
11043;DHT22;5574;48.786;10.120;2023-07-31T03:31:54;14.50;99.90
11043;DHT22;5574;48.786;10.120;2023-07-31T03:34:20;14.40;99.90
11043;DHT22;5574;48.786;10.120;2023-07-31T03:36:47;14.50;99.90
11043;DHT22;5574;48.786;10.120;2023-07-31T03:39:14;14.40;99.90
11043;DHT22;5574;48.786;10.120;2023-07-31T03:41:40;14.30;99.90
11043;DHT22;5574;48.786;10.120;2023-07-31T03:44:08;14.30;99.90
11043;DHT22;5574;48.786;10.120;2023-07-31T03:46:35;14.20;99.90
11043;DHT22;5574;48.786;10.120;2023-07-31T03:49:02;14.20;99.90
11043;DHT22;5574;48.786;10.120;2023-07-31T03:51:29;14.20;99.90
11043;DHT22;5574;48.786;10.120;2023-07-31T03:53:55;14.30;99.90
11043;DHT22;5574;48.786;10.120;2023-07-31T03:56:22;14.30;99.90
11043;DHT22;5574;48.786;10.120;2023-07-31T03:58:49;14.20;99.90
11043;DHT22;5574;48.786;10.120;2023-07-31T04:01:17;14.20;99.90
11043;DHT22;5574;48.786;10.120;2023-07-31T04:03:44;14.20;99.90
11043;DHT22;5574;48.786;10.120;2023-07-31T04:06:11;14.30;99.90
11043;DHT22;5574;48.786;10.120;2023-07-31T04:08:38;14.30;99.90
11043;DHT22;5574;48.786;10.120;2023-07-31T04:11:05;14.20;99.90
11043;DHT22;5574;48.786;10.120;2023-07-31T04:13:31;14.30;99.90
11043;DHT22;5574;48.786;10.120;2023-07-31T04:15:59;14.30;99.90
11043;DHT22;5574;48.786;10.120;2023-07-31T04:18:27;14.20;99.90
11043;DHT22;5574;48.786;10.120;2023-07-31T04:20:53;14.30;99.90
11043;DHT22;5574;48.786;10.120;2023-07-31T04:23:20;14.30;99.90
11043;DHT22;5574;48.786;10.120;2023-07-31T04:25:47;14.30;99.90
11043;DHT22;5574;48.786;10.120;2023-07-31T04:28:14;14.30;99.90
11043;DHT22;5574;48.786;10.120;2023-07-31T04:30:41;14.40;99.90
11043;DHT22;5574;48.786;10.120;2023-07-31T04:33:07;14.40;99.90
11043;DHT22;5574;48.786;10.120;2023-07-31T04:35:35;14.40;99.90
11043;DHT22;5574;48.786;10.120;2023-07-31T04:38:02;14.40;99.90
11043;DHT22;5574;48.786;10.120;2023-07-31T04:40:29;14.40;99.90
11043;DHT22;5574;48.786;10.120;2023-07-31T04:42:55;14.40;99.90
11043;DHT22;5574;48.786;10.120;2023-07-31T04:45:22;14.40;99.90
11043;DHT22;5574;48.786;10.120;2023-07-31T04:47:49;14.30;99.90
11043;DHT22;5574;48.786;10.120;2023-07-31T04:50:15;14.30;99.90
11043;DHT22;5574;48.786;10.120;2023-07-31T04:52:44;14.40;99.90
11043;DHT22;5574;48.786;10.120;2023-07-31T04:55:10;14.30;99.90
11043;DHT22;5574;48.786;10.120;2023-07-31T04:57:37;14.40;99.90
11043;DHT22;5574;48.786;10.120;2023-07-31T05:00:05;14.40;99.90
11043;DHT22;5574;48.786;10.120;2023-07-31T05:02:32;14.40;99.90
11043;DHT22;5574;48.786;10.120;2023-07-31T05:04:59;14.40;99.90
11043;DHT22;5574;48.786;10.120;2023-07-31T05:07:25;14.40;99.90
11043;DHT22;5574;48.786;10.120;2023-07-31T05:09:53;14.50;99.90
11043;DHT22;5574;48.786;10.120;2023-07-31T05:12:20;14.50;99.90
11043;DHT22;5574;48.786;10.120;2023-07-31T05:14:46;14.60;99.90
11043;DHT22;5574;48.786;10.120;2023-07-31T05:17:13;14.60;99.90
11043;DHT22;5574;48.786;10.120;2023-07-31T05:19:40;14.60;99.90
11043;DHT22;5574;48.786;10.120;2023-07-31T05:22:07;14.60;99.90
11043;DHT22;5574;48.786;10.120;2023-07-31T05:24:34;14.60;99.90
11043;DHT22;5574;48.786;10.120;2023-07-31T05:27:02;14.70;99.90
11043;DHT22;5574;48.786;10.120;2023-07-31T05:29:29;14.70;99.90
11043;DHT22;5574;48.786;10.120;2023-07-31T05:31:56;14.60;99.90
11043;DHT22;5574;48.786;10.120;2023-07-31T05:34:22;14.70;99.90
11043;DHT22;5574;48.786;10.120;2023-07-31T05:36:49;14.60;99.90
11043;DHT22;5574;48.786;10.120;2023-07-31T05:39:16;14.60;99.90
11043;DHT22;5574;48.786;10.120;2023-07-31T05:41:45;14.50;99.90
11043;DHT22;5574;48.786;10.120;2023-07-31T05:44:13;14.50;99.90
11043;DHT22;5574;48.786;10.120;2023-07-31T05:46:40;14.30;99.90
11043;DHT22;5574;48.786;10.120;2023-07-31T05:49:07;14.30;99.90
11043;DHT22;5574;48.786;10.120;2023-07-31T05:51:34;14.20;99.90
11043;DHT22;5574;48.786;10.120;2023-07-31T05:54:00;14.20;99.90
11043;DHT22;5574;48.786;10.120;2023-07-31T05:56:27;14.20;99.90
11043;DHT22;5574;48.786;10.120;2023-07-31T05:58:54;14.20;99.90
11043;DHT22;5574;48.786;10.120;2023-07-31T06:01:23;14.20;99.90
11043;DHT22;5574;48.786;10.120;2023-07-31T06:03:50;14.30;99.90
11043;DHT22;5574;48.786;10.120;2023-07-31T06:06:17;14.30;99.90
11043;DHT22;5574;48.786;10.120;2023-07-31T06:08:43;14.40;99.90
11043;DHT22;5574;48.786;10.120;2023-07-31T06:11:10;14.50;99.90
11043;DHT22;5574;48.786;10.120;2023-07-31T06:13:37;14.40;99.90
11043;DHT22;5574;48.786;10.120;2023-07-31T06:16:04;14.50;99.90
11043;DHT22;5574;48.786;10.120;2023-07-31T06:18:33;14.50;99.90
11043;DHT22;5574;48.786;10.120;2023-07-31T06:20:59;14.50;99.90
11043;DHT22;5574;48.786;10.120;2023-07-31T06:23:26;14.60;99.90
11043;DHT22;5574;48.786;10.120;2023-07-31T06:25:53;14.60;99.90
11043;DHT22;5574;48.786;10.120;2023-07-31T06:28:19;14.70;99.90
11043;DHT22;5574;48.786;10.120;2023-07-31T06:30:46;14.80;99.90
11043;DHT22;5574;48.786;10.120;2023-07-31T06:33:13;14.90;99.90
11043;DHT22;5574;48.786;10.120;2023-07-31T06:35:41;14.90;99.90
11043;DHT22;5574;48.786;10.120;2023-07-31T06:38:08;15.00;99.90
11043;DHT22;5574;48.786;10.120;2023-07-31T06:40:34;15.10;99.90
11043;DHT22;5574;48.786;10.120;2023-07-31T06:43:01;15.10;99.90
11043;DHT22;5574;48.786;10.120;2023-07-31T06:45:33;15.10;99.90
11043;DHT22;5574;48.786;10.120;2023-07-31T06:48:00;15.20;99.90
11043;DHT22;5574;48.786;10.120;2023-07-31T06:50:27;15.20;99.90
11043;DHT22;5574;48.786;10.120;2023-07-31T06:52:55;15.30;99.90
11043;DHT22;5574;48.786;10.120;2023-07-31T06:55:23;15.50;99.90
11043;DHT22;5574;48.786;10.120;2023-07-31T06:57:51;15.70;99.90
11043;DHT22;5574;48.786;10.120;2023-07-31T07:00:19;15.90;99.90
11043;DHT22;5574;48.786;10.120;2023-07-31T07:02:46;16.10;99.90
11043;DHT22;5574;48.786;10.120;2023-07-31T07:05:14;16.30;99.90
11043;DHT22;5574;48.786;10.120;2023-07-31T07:07:41;16.60;99.90
11043;DHT22;5574;48.786;10.120;2023-07-31T07:10:10;16.80;99.90
11043;DHT22;5574;48.786;10.120;2023-07-31T07:12:37;17.00;99.90
11043;DHT22;5574;48.786;10.120;2023-07-31T07:15:05;17.20;99.90
11043;DHT22;5574;48.786;10.120;2023-07-31T07:17:31;17.40;99.90
11043;DHT22;5574;48.786;10.120;2023-07-31T07:19:58;17.50;99.90
11043;DHT22;5574;48.786;10.120;2023-07-31T07:22:25;17.50;99.90
11043;DHT22;5574;48.786;10.120;2023-07-31T07:24:52;17.50;99.90
11043;DHT22;5574;48.786;10.120;2023-07-31T07:27:20;17.60;99.90
11043;DHT22;5574;48.786;10.120;2023-07-31T07:29:47;17.80;99.90
11043;DHT22;5574;48.786;10.120;2023-07-31T07:32:16;18.10;99.90
11043;DHT22;5574;48.786;10.120;2023-07-31T07:34:43;18.30;99.90
11043;DHT22;5574;48.786;10.120;2023-07-31T07:37:11;18.30;99.90
11043;DHT22;5574;48.786;10.120;2023-07-31T07:39:37;18.40;99.90
11043;DHT22;5574;48.786;10.120;2023-07-31T07:42:04;18.30;99.90
11043;DHT22;5574;48.786;10.120;2023-07-31T07:44:32;18.30;99.90
11043;DHT22;5574;48.786;10.120;2023-07-31T07:46:59;18.20;99.90
11043;DHT22;5574;48.786;10.120;2023-07-31T07:49:26;18.10;99.90
11043;DHT22;5574;48.786;10.120;2023-07-31T07:51:52;18.00;99.90
11043;DHT22;5574;48.786;10.120;2023-07-31T07:54:19;18.00;99.90
11043;DHT22;5574;48.786;10.120;2023-07-31T07:56:47;17.90;99.90
11043;DHT22;5574;48.786;10.120;2023-07-31T07:59:13;18.10;99.90
11043;DHT22;5574;48.786;10.120;2023-07-31T08:01:42;18.40;99.90
11043;DHT22;5574;48.786;10.120;2023-07-31T08:04:09;18.50;99.90
11043;DHT22;5574;48.786;10.120;2023-07-31T08:06:36;18.70;99.90
11043;DHT22;5574;48.786;10.120;2023-07-31T08:09:04;18.80;99.90
11043;DHT22;5574;48.786;10.120;2023-07-31T08:11:32;18.90;99.90
11043;DHT22;5574;48.786;10.120;2023-07-31T08:13:59;19.00;99.90
11043;DHT22;5574;48.786;10.120;2023-07-31T08:16:26;19.00;99.90
11043;DHT22;5574;48.786;10.120;2023-07-31T08:18:55;18.90;99.90
11043;DHT22;5574;48.786;10.120;2023-07-31T08:21:22;18.80;99.90
11043;DHT22;5574;48.786;10.120;2023-07-31T08:23:50;19.00;99.90
11043;DHT22;5574;48.786;10.120;2023-07-31T08:26:17;19.00;99.90
11043;DHT22;5574;48.786;10.120;2023-07-31T08:28:45;19.00;99.90
11043;DHT22;5574;48.786;10.120;2023-07-31T08:31:12;19.00;99.90
11043;DHT22;5574;48.786;10.120;2023-07-31T08:33:39;19.20;99.90
11043;DHT22;5574;48.786;10.120;2023-07-31T08:36:08;19.30;99.90
11043;DHT22;5574;48.786;10.120;2023-07-31T08:38:34;19.40;99.90
11043;DHT22;5574;48.786;10.120;2023-07-31T08:41:03;19.60;99.90
11043;DHT22;5574;48.786;10.120;2023-07-31T08:43:30;19.70;99.90
11043;DHT22;5574;48.786;10.120;2023-07-31T08:45:57;19.80;99.90
11043;DHT22;5574;48.786;10.120;2023-07-31T08:48:24;19.80;99.90
11043;DHT22;5574;48.786;10.120;2023-07-31T08:50:52;19.90;99.90
11043;DHT22;5574;48.786;10.120;2023-07-31T08:53:20;20.00;99.90
11043;DHT22;5574;48.786;10.120;2023-07-31T08:55:48;20.20;99.80
11043;DHT22;5574;48.786;10.120;2023-07-31T08:58:17;20.40;99.90
11043;DHT22;5574;48.786;10.120;2023-07-31T09:00:46;20.60;99.90
11043;DHT22;5574;48.786;10.120;2023-07-31T09:03:14;20.60;99.70
11043;DHT22;5574;48.786;10.120;2023-07-31T09:05:42;20.60;99.60
11043;DHT22;5574;48.786;10.120;2023-07-31T09:08:10;20.60;99.10
11043;DHT22;5574;48.786;10.120;2023-07-31T09:10:41;20.70;99.30
11043;DHT22;5574;48.786;10.120;2023-07-31T09:13:08;20.80;99.10
11043;DHT22;5574;48.786;10.120;2023-07-31T09:15:36;20.70;98.80
11043;DHT22;5574;48.786;10.120;2023-07-31T09:18:04;20.70;99.40
11043;DHT22;5574;48.786;10.120;2023-07-31T09:20:31;20.70;99.00
11043;DHT22;5574;48.786;10.120;2023-07-31T09:23:05;20.80;99.00
11043;DHT22;5574;48.786;10.120;2023-07-31T09:25:32;20.90;99.20
11043;DHT22;5574;48.786;10.120;2023-07-31T09:28:02;21.00;99.10
11043;DHT22;5574;48.786;10.120;2023-07-31T09:30:29;20.90;99.10
11043;DHT22;5574;48.786;10.120;2023-07-31T09:33:00;21.10;99.70
11043;DHT22;5574;48.786;10.120;2023-07-31T09:35:29;21.20;99.60
11043;DHT22;5574;48.786;10.120;2023-07-31T09:37:57;21.30;97.80
11043;DHT22;5574;48.786;10.120;2023-07-31T09:40:29;21.10;98.40
11043;DHT22;5574;48.786;10.120;2023-07-31T09:42:57;21.00;98.80
11043;DHT22;5574;48.786;10.120;2023-07-31T09:45:26;21.10;98.50
11043;DHT22;5574;48.786;10.120;2023-07-31T09:47:53;21.10;98.00
11043;DHT22;5574;48.786;10.120;2023-07-31T09:50:22;21.30;98.90
11043;DHT22;5574;48.786;10.120;2023-07-31T09:52:49;21.30;98.30
11043;DHT22;5574;48.786;10.120;2023-07-31T09:55:17;21.50;98.70
11043;DHT22;5574;48.786;10.120;2023-07-31T09:57:46;21.60;98.30
11043;DHT22;5574;48.786;10.120;2023-07-31T10:00:14;21.50;97.30
11043;DHT22;5574;48.786;10.120;2023-07-31T10:02:45;21.40;97.80
11043;DHT22;5574;48.786;10.120;2023-07-31T10:05:13;21.30;97.40
11043;DHT22;5574;48.786;10.120;2023-07-31T10:07:42;21.10;97.20
11043;DHT22;5574;48.786;10.120;2023-07-31T10:10:09;21.00;97.50
11043;DHT22;5574;48.786;10.120;2023-07-31T10:12:37;20.90;98.10
11043;DHT22;5574;48.786;10.120;2023-07-31T10:15:05;20.90;97.30
11043;DHT22;5574;48.786;10.120;2023-07-31T10:17:33;21.20;97.30
11043;DHT22;5574;48.786;10.120;2023-07-31T10:20:03;21.20;97.50
11043;DHT22;5574;48.786;10.120;2023-07-31T10:22:30;21.30;96.20
11043;DHT22;5574;48.786;10.120;2023-07-31T10:24:59;21.20;96.70
11043;DHT22;5574;48.786;10.120;2023-07-31T10:27:26;21.20;96.50
11043;DHT22;5574;48.786;10.120;2023-07-31T10:29:54;21.50;97.30
11043;DHT22;5574;48.786;10.120;2023-07-31T10:32:22;21.60;95.90
11043;DHT22;5574;48.786;10.120;2023-07-31T10:34:49;21.50;96.50
11043;DHT22;5574;48.786;10.120;2023-07-31T10:37:22;21.50;96.70
11043;DHT22;5574;48.786;10.120;2023-07-31T10:39:56;21.40;97.30
11043;DHT22;5574;48.786;10.120;2023-07-31T10:42:31;21.20;96.60
11043;DHT22;5574;48.786;10.120;2023-07-31T10:45:01;21.30;96.40
11043;DHT22;5574;48.786;10.120;2023-07-31T10:47:28;21.50;96.80
11043;DHT22;5574;48.786;10.120;2023-07-31T10:50:17;21.60;95.90
11043;DHT22;5574;48.786;10.120;2023-07-31T10:52:49;21.80;95.80
11043;DHT22;5574;48.786;10.120;2023-07-31T10:55:23;21.80;95.70
11043;DHT22;5574;48.786;10.120;2023-07-31T10:57:50;22.00;96.30
11043;DHT22;5574;48.786;10.120;2023-07-31T11:00:22;22.20;96.00
11043;DHT22;5574;48.786;10.120;2023-07-31T11:02:59;22.50;95.00
11043;DHT22;5574;48.786;10.120;2023-07-31T11:05:41;22.60;95.20
11043;DHT22;5574;48.786;10.120;2023-07-31T11:08:17;22.50;94.60
11043;DHT22;5574;48.786;10.120;2023-07-31T11:10:46;22.40;95.50
11043;DHT22;5574;48.786;10.120;2023-07-31T11:13:13;22.50;95.60
11043;DHT22;5574;48.786;10.120;2023-07-31T11:15:40;22.80;95.80
11043;DHT22;5574;48.786;10.120;2023-07-31T11:18:06;22.80;95.50
11043;DHT22;5574;48.786;10.120;2023-07-31T11:20:36;23.00;94.70
11043;DHT22;5574;48.786;10.120;2023-07-31T11:23:06;23.20;94.20
11043;DHT22;5574;48.786;10.120;2023-07-31T11:25:35;23.30;94.50
11043;DHT22;5574;48.786;10.120;2023-07-31T11:28:05;23.30;93.20
11043;DHT22;5574;48.786;10.120;2023-07-31T11:30:32;23.40;93.90
11043;DHT22;5574;48.786;10.120;2023-07-31T11:33:02;23.50;94.40
11043;DHT22;5574;48.786;10.120;2023-07-31T11:35:30;23.70;94.10
11043;DHT22;5574;48.786;10.120;2023-07-31T11:37:57;23.90;94.70
11043;DHT22;5574;48.786;10.120;2023-07-31T11:40:23;24.00;94.40
11043;DHT22;5574;48.786;10.120;2023-07-31T11:42:56;23.80;93.10
11043;DHT22;5574;48.786;10.120;2023-07-31T11:45:25;23.90;92.80
11043;DHT22;5574;48.786;10.120;2023-07-31T11:47:54;23.80;92.90
11043;DHT22;5574;48.786;10.120;2023-07-31T11:50:21;23.50;92.80
11043;DHT22;5574;48.786;10.120;2023-07-31T11:52:53;23.20;92.70
11043;DHT22;5574;48.786;10.120;2023-07-31T11:55:21;23.10;92.60
11043;DHT22;5574;48.786;10.120;2023-07-31T11:57:48;23.10;93.40
11043;DHT22;5574;48.786;10.120;2023-07-31T12:00:17;23.20;93.40
11043;DHT22;5574;48.786;10.120;2023-07-31T12:02:44;23.20;94.30
11043;DHT22;5574;48.786;10.120;2023-07-31T12:05:12;23.00;93.20
11043;DHT22;5574;48.786;10.120;2023-07-31T12:07:46;23.20;92.90
11043;DHT22;5574;48.786;10.120;2023-07-31T12:10:26;23.10;93.10
11043;DHT22;5574;48.786;10.120;2023-07-31T12:13:01;23.20;92.30
11043;DHT22;5574;48.786;10.120;2023-07-31T12:15:32;23.30;92.60
11043;DHT22;5574;48.786;10.120;2023-07-31T12:17:59;23.40;92.00
11043;DHT22;5574;48.786;10.120;2023-07-31T12:20:26;23.60;91.60
11043;DHT22;5574;48.786;10.120;2023-07-31T12:22:56;23.70;91.80
11043;DHT22;5574;48.786;10.120;2023-07-31T12:25:23;23.50;92.20
11043;DHT22;5574;48.786;10.120;2023-07-31T12:27:54;23.30;92.70
11043;DHT22;5574;48.786;10.120;2023-07-31T12:30:31;23.00;92.80
11043;DHT22;5574;48.786;10.120;2023-07-31T12:33:03;23.00;93.80
11043;DHT22;5574;48.786;10.120;2023-07-31T12:35:35;23.00;93.40
11043;DHT22;5574;48.786;10.120;2023-07-31T12:38:02;23.30;93.90
11043;DHT22;5574;48.786;10.120;2023-07-31T12:40:29;23.30;94.50
11043;DHT22;5574;48.786;10.120;2023-07-31T12:42:56;23.20;93.60
11043;DHT22;5574;48.786;10.120;2023-07-31T12:45:23;23.10;94.00
11043;DHT22;5574;48.786;10.120;2023-07-31T12:47:51;23.00;93.90
11043;DHT22;5574;48.786;10.120;2023-07-31T12:50:17;23.00;94.30
11043;DHT22;5574;48.786;10.120;2023-07-31T12:52:44;22.80;92.80
11043;DHT22;5574;48.786;10.120;2023-07-31T12:55:11;22.70;93.20
11043;DHT22;5574;48.786;10.120;2023-07-31T12:57:39;22.60;93.10
11043;DHT22;5574;48.786;10.120;2023-07-31T13:00:07;22.40;93.90
11043;DHT22;5574;48.786;10.120;2023-07-31T13:02:34;22.40;94.10
11043;DHT22;5574;48.786;10.120;2023-07-31T13:05:02;22.30;94.50
11043;DHT22;5574;48.786;10.120;2023-07-31T13:07:29;22.50;95.40
11043;DHT22;5574;48.786;10.120;2023-07-31T13:09:55;22.50;94.40
11043;DHT22;5574;48.786;10.120;2023-07-31T13:12:22;22.50;94.10
11043;DHT22;5574;48.786;10.120;2023-07-31T13:14:49;22.50;94.40
11043;DHT22;5574;48.786;10.120;2023-07-31T13:17:16;22.50;93.90
11043;DHT22;5574;48.786;10.120;2023-07-31T13:19:43;22.50;94.40
11043;DHT22;5574;48.786;10.120;2023-07-31T13:22:11;22.60;94.50
11043;DHT22;5574;48.786;10.120;2023-07-31T13:24:37;22.70;94.50
11043;DHT22;5574;48.786;10.120;2023-07-31T13:27:04;22.80;93.80
11043;DHT22;5574;48.786;10.120;2023-07-31T13:29:31;22.90;93.70
11043;DHT22;5574;48.786;10.120;2023-07-31T13:31:58;23.00;94.70
11043;DHT22;5574;48.786;10.120;2023-07-31T13:34:25;23.10;94.90
11043;DHT22;5574;48.786;10.120;2023-07-31T13:36:53;23.20;94.00
11043;DHT22;5574;48.786;10.120;2023-07-31T13:39:21;23.20;93.70
11043;DHT22;5574;48.786;10.120;2023-07-31T13:41:48;23.20;93.40
11043;DHT22;5574;48.786;10.120;2023-07-31T13:44:15;23.30;94.10
11043;DHT22;5574;48.786;10.120;2023-07-31T13:46:41;23.60;93.70
11043;DHT22;5574;48.786;10.120;2023-07-31T13:49:08;23.80;92.50
11043;DHT22;5574;48.786;10.120;2023-07-31T13:51:35;24.00;93.00
11043;DHT22;5574;48.786;10.120;2023-07-31T13:54:01;23.80;91.80
11043;DHT22;5574;48.786;10.120;2023-07-31T13:56:29;23.50;91.90
11043;DHT22;5574;48.786;10.120;2023-07-31T13:58:56;23.30;92.40
11043;DHT22;5574;48.786;10.120;2023-07-31T14:01:23;23.00;92.60
11043;DHT22;5574;48.786;10.120;2023-07-31T14:03:49;22.90;93.00
11043;DHT22;5574;48.786;10.120;2023-07-31T14:06:16;22.70;93.30
11043;DHT22;5574;48.786;10.120;2023-07-31T14:08:43;22.70;93.60
11043;DHT22;5574;48.786;10.120;2023-07-31T14:11:10;22.60;93.60
11043;DHT22;5574;48.786;10.120;2023-07-31T14:13:37;22.70;94.00
11043;DHT22;5574;48.786;10.120;2023-07-31T14:16:04;22.60;93.50
11043;DHT22;5574;48.786;10.120;2023-07-31T14:18:31;22.50;93.30
11043;DHT22;5574;48.786;10.120;2023-07-31T14:20:58;22.50;93.80
11043;DHT22;5574;48.786;10.120;2023-07-31T14:23:25;22.60;94.20
11043;DHT22;5574;48.786;10.120;2023-07-31T14:25:52;22.60;93.50
11043;DHT22;5574;48.786;10.120;2023-07-31T14:28:18;22.50;93.90
11043;DHT22;5574;48.786;10.120;2023-07-31T14:30:46;22.50;95.00
11043;DHT22;5574;48.786;10.120;2023-07-31T14:33:13;22.50;94.60
11043;DHT22;5574;48.786;10.120;2023-07-31T14:35:40;22.30;93.30
11043;DHT22;5574;48.786;10.120;2023-07-31T14:38:06;22.40;94.20
11043;DHT22;5574;48.786;10.120;2023-07-31T14:40:33;22.40;94.50
11043;DHT22;5574;48.786;10.120;2023-07-31T14:43:00;22.30;94.10
11043;DHT22;5574;48.786;10.120;2023-07-31T14:45:26;22.20;93.60
11043;DHT22;5574;48.786;10.120;2023-07-31T14:47:54;22.20;93.60
11043;DHT22;5574;48.786;10.120;2023-07-31T14:50:21;22.10;93.70
11043;DHT22;5574;48.786;10.120;2023-07-31T14:52:48;22.10;94.10
11043;DHT22;5574;48.786;10.120;2023-07-31T14:55:15;22.10;95.60
11043;DHT22;5574;48.786;10.120;2023-07-31T14:57:42;22.00;94.40
11043;DHT22;5574;48.786;10.120;2023-07-31T15:00:09;22.00;94.70
11043;DHT22;5574;48.786;10.120;2023-07-31T15:02:36;22.00;94.30
11043;DHT22;5574;48.786;10.120;2023-07-31T15:05:05;22.00;94.40
11043;DHT22;5574;48.786;10.120;2023-07-31T15:07:32;22.00;94.00
11043;DHT22;5574;48.786;10.120;2023-07-31T15:09:59;22.10;94.60
11043;DHT22;5574;48.786;10.120;2023-07-31T15:12:26;22.20;93.90
11043;DHT22;5574;48.786;10.120;2023-07-31T15:14:53;22.20;94.10
11043;DHT22;5574;48.786;10.120;2023-07-31T15:17:20;22.30;94.30
11043;DHT22;5574;48.786;10.120;2023-07-31T15:19:47;22.30;94.70
11043;DHT22;5574;48.786;10.120;2023-07-31T15:22:15;22.30;94.50
11043;DHT22;5574;48.786;10.120;2023-07-31T15:24:41;22.30;94.50
11043;DHT22;5574;48.786;10.120;2023-07-31T15:27:08;22.30;94.50
11043;DHT22;5574;48.786;10.120;2023-07-31T15:29:35;22.30;94.30
11043;DHT22;5574;48.786;10.120;2023-07-31T15:32:03;22.40;94.90
11043;DHT22;5574;48.786;10.120;2023-07-31T15:34:30;22.40;94.90
11043;DHT22;5574;48.786;10.120;2023-07-31T15:36:57;22.40;95.30